Time;durP1;ratioP1;P1;durP2;ratioP2;P2;SDS_P1;SDS_P2;PMS_P1;PMS_P2;Temp;Humidity;BMP_temperature;BMP_pressure;BME280_temperature;BME280_humidity;BME280_pressure;Samples;Min_cycle;Max_cycle;Signal;HPM_P1;HPM_P2
2020/12/31 00:00:18;;;;;;;13.15;8.55;;;;;;;2.03;91.71;99840.66;5008298;28;20072;-56
2020/12/31 00:02:45;;;;;;;13.25;8.45;;;;;;;2.03;91.58;99838.06;5010747;28;20049;-58
2020/12/31 00:05:12;;;;;;;12.82;8.40;;;;;;;2.00;92.70;99839.00;5014046;28;20088;-58
2020/12/31 00:07:39;;;;;;;13.25;7.68;;;;;;;2.20;91.41;99846.06;5008973;28;20507;-59
2020/12/31 00:10:06;;;;;;;13.75;7.85;;;;;;;2.20;90.72;99850.41;5003517;28;20058;-55
2020/12/31 00:12:33;;;;;;;12.63;7.30;;;;;;;2.24;90.64;99844.19;5009452;28;20049;-59
2020/12/31 00:14:59;;;;;;;11.73;7.70;;;;;;;2.07;91.22;99850.00;5006943;28;20054;-58
2020/12/31 00:17:26;;;;;;;11.93;8.27;;;;;;;1.91;91.85;99854.06;5004350;28;20072;-56
2020/12/31 00:19:53;;;;;;;15.30;8.23;;;;;;;1.84;92.09;99858.63;5010300;28;20133;-59
2020/12/31 00:22:20;;;;;;;14.32;8.07;;;;;;;1.97;91.73;99859.88;5007093;28;20050;-55
2020/12/31 00:24:46;;;;;;;13.07;8.57;;;;;;;2.02;91.95;99854.53;5004542;28;20054;-53
2020/12/31 00:27:17;;;;;;;12.07;7.70;;;;;;;1.91;92.14;99865.31;4989828;28;20085;-59
2020/12/31 00:29:44;;;;;;;13.40;8.88;;;;;;;1.92;92.11;99859.19;5007975;28;20050;-59
2020/12/31 00:32:11;;;;;;;9.38;7.28;;;;;;;2.16;91.21;99867.88;5018070;28;20064;-60
2020/12/31 00:34:38;;;;;;;11.25;7.68;;;;;;;2.18;90.86;99867.81;5000012;28;20078;-59
2020/12/31 00:37:04;;;;;;;10.50;7.50;;;;;;;2.33;90.14;99869.81;5016083;28;20434;-57
2020/12/31 00:39:31;;;;;;;11.98;7.38;;;;;;;2.45;89.93;99865.94;5015721;28;20075;-59
2020/12/31 00:41:58;;;;;;;13.57;8.48;;;;;;;2.50;89.13;99866.59;5000500;28;20136;-59
2020/12/31 00:44:25;;;;;;;13.13;7.82;;;;;;;2.43;89.63;99862.53;5012559;28;20053;-56
2020/12/31 00:46:51;;;;;;;14.35;8.35;;;;;;;2.31;90.23;99869.06;5013273;28;20050;-56
2020/12/31 00:49:18;;;;;;;16.27;8.70;;;;;;;2.38;89.70;99860.09;5009038;28;20049;-56
2020/12/31 00:51:44;;;;;;;15.25;8.30;;;;;;;2.43;89.55;99867.72;5011239;28;20074;-56
2020/12/31 00:54:11;;;;;;;11.43;6.80;;;;;;;2.45;89.11;99869.38;4999606;28;20049;-59
2020/12/31 00:56:38;;;;;;;13.73;9.10;;;;;;;2.15;90.37;99868.75;5004728;28;20133;-53
2020/12/31 00:59:04;;;;;;;17.02;8.40;;;;;;;2.04;90.92;99870.91;5011856;28;20141;-54
2020/12/31 01:01:31;;;;;;;13.50;8.27;;;;;;;2.34;90.06;99881.06;5005560;28;20056;-57
2020/12/31 01:03:58;;;;;;;14.50;7.97;;;;;;;2.32;89.82;99873.34;5010636;28;20087;-56
2020/12/31 01:06:25;;;;;;;10.68;7.20;;;;;;;2.25;89.76;99880.53;5010614;28;20054;-55
2020/12/31 01:08:51;;;;;;;10.73;7.85;;;;;;;2.23;89.71;99881.47;4991128;28;20053;-54
2020/12/31 01:11:18;;;;;;;14.40;8.48;;;;;;;2.14;90.36;99887.84;5005969;28;20912;-59
2020/12/31 01:13:45;;;;;;;12.98;8.55;;;;;;;2.25;89.93;99887.44;5007822;28;20394;-56
2020/12/31 01:16:12;;;;;;;12.27;7.65;;;;;;;2.22;89.96;99883.22;5005679;28;20678;-55
2020/12/31 01:18:38;;;;;;;11.48;8.10;;;;;;;2.11;90.15;99879.31;5009077;28;20128;-58
2020/12/31 01:21:11;;;;;;;12.18;8.85;;;;;;;1.91;90.85;99883.47;5002549;28;20060;-57
2020/12/31 01:23:38;;;;;;;12.80;7.80;;;;;;;1.91;91.43;99886.06;4988990;28;20689;-53
2020/12/31 01:26:05;;;;;;;15.30;8.05;;;;;;;2.14;90.19;99884.41;5008945;28;20046;-55
2020/12/31 01:28:32;;;;;;;10.98;7.05;;;;;;;2.19;89.76;99885.06;5011788;28;20046;-53
2020/12/31 01:30:59;;;;;;;11.73;7.78;;;;;;;2.12;90.47;99883.63;5018500;28;20049;-57
2020/12/31 01:33:26;;;;;;;12.10;8.75;;;;;;;2.26;89.70;99891.75;5006015;28;20422;-58
2020/12/31 01:35:52;;;;;;;12.45;8.27;;;;;;;2.17;89.57;99887.75;5007481;28;20054;-58
2020/12/31 01:38:19;;;;;;;14.00;8.38;;;;;;;2.53;92.29;99885.53;4985527;28;20436;-58
2020/12/31 01:40:47;;;;;;;12.25;8.70;;;;;;;2.62;91.87;99886.94;5009182;28;20058;-56
2020/12/31 01:43:13;;;;;;;12.25;8.10;;;;;;;2.62;88.43;99897.31;5005373;28;20422;-57
2020/12/31 01:45:40;;;;;;;11.73;8.15;;;;;;;2.33;89.58;99894.97;5007729;28;20602;-58
2020/12/31 01:48:07;;;;;;;10.18;7.50;;;;;;;2.20;89.75;99900.59;5005750;28;20626;-59
2020/12/31 01:50:34;;;;;;;11.70;7.70;;;;;;;2.36;89.37;99905.25;5009634;28;20057;-57
2020/12/31 01:53:01;;;;;;;12.98;8.02;;;;;;;2.26;89.61;99902.13;5007159;28;20466;-57
2020/12/31 01:55:28;;;;;;;11.38;7.78;;;;;;;2.08;90.28;99902.81;5008258;28;20046;-57
2020/12/31 01:57:55;;;;;;;13.32;8.50;;;;;;;1.95;91.31;99913.59;4989343;28;20050;-57
2020/12/31 02:00:22;;;;;;;10.90;7.82;;;;;;;2.20;89.91;99908.38;5007159;28;20099;-57
2020/12/31 02:02:48;;;;;;;13.00;7.32;;;;;;;2.28;89.84;99906.34;5004925;28;20066;-54
2020/12/31 02:05:15;;;;;;;11.30;7.38;;;;;;;2.21;89.89;99914.44;5007074;28;20054;-58
2020/12/31 02:07:45;;;;;;;11.65;8.00;;;;;;;2.18;90.11;99909.34;5006388;28;20053;-58
2020/12/31 02:10:14;;;;;;;11.13;7.13;;;;;;;2.02;90.62;99915.06;4986155;28;20054;-58
2020/12/31 02:12:41;;;;;;;12.15;8.23;;;;;;;1.84;90.98;99915.72;5009877;28;20550;-57
2020/12/31 02:15:16;;;;;;;11.90;7.60;;;;;;;2.11;90.37;99905.28;4997429;28;20527;-59
2020/12/31 02:17:44;;;;;;;12.63;8.27;;;;;;;2.16;90.47;99908.53;5001790;28;20137;-55
2020/12/31 02:20:12;;;;;;;12.63;8.05;;;;;;;1.99;90.59;99904.81;5006638;28;20045;-57
2020/12/31 02:22:39;;;;;;;14.93;7.65;;;;;;;2.12;90.29;99909.59;5003797;28;20054;-58
2020/12/31 02:25:06;;;;;;;11.60;7.78;;;;;;;2.16;89.88;99911.13;4999438;28;20068;-57
2020/12/31 02:27:33;;;;;;;11.85;8.13;;;;;;;2.08;90.13;99913.19;5000351;28;20056;-60
2020/12/31 02:29:59;;;;;;;11.80;7.70;;;;;;;2.11;90.14;99911.31;5006388;28;20172;-56
2020/12/31 02:32:26;;;;;;;16.13;9.52;;;;;;;1.89;90.88;99907.78;5006970;28;20062;-58
2020/12/31 02:34:53;;;;;;;12.57;8.60;;;;;;;1.94;91.25;99913.69;5006691;28;20066;-58
2020/12/31 02:37:19;;;;;;;12.20;8.88;;;;;;;1.94;91.26;99913.69;5003204;28;20138;-55
2020/12/31 02:39:46;;;;;;;14.27;8.38;;;;;;;1.89;91.74;99915.56;5006922;28;20111;-55
2020/12/31 02:42:13;;;;;;;11.23;8.00;;;;;;;1.90;91.08;99914.69;5006791;28;20054;-55
2020/12/31 02:44:39;;;;;;;12.77;8.05;;;;;;;1.98;91.21;99913.50;5009502;28;20136;-58
2020/12/31 02:47:07;;;;;;;15.45;8.70;;;;;;;2.20;90.39;99916.16;5001996;28;20061;-57
2020/12/31 02:49:33;;;;;;;12.15;8.68;;;;;;;2.22;89.97;99919.56;5006747;28;20522;-58
2020/12/31 02:52:00;;;;;;;16.40;8.73;;;;;;;2.18;90.00;99917.16;5013156;28;20148;-57
2020/12/31 02:54:27;;;;;;;11.68;7.82;;;;;;;2.16;89.94;99916.34;5007383;28;20080;-56
2020/12/31 02:56:53;;;;;;;11.82;7.72;;;;;;;2.14;90.37;99916.41;5010387;28;20092;-55
2020/12/31 02:59:20;;;;;;;14.52;8.38;;;;;;;2.12;90.60;99915.63;5006415;28;20541;-56
2020/12/31 03:01:47;;;;;;;12.40;9.23;;;;;;;2.11;90.49;99919.09;5011459;28;20048;-54
2020/12/31 03:04:13;;;;;;;11.07;7.88;;;;;;;2.02;90.77;99915.06;5004540;28;20057;-59
2020/12/31 03:06:40;;;;;;;10.57;7.97;;;;;;;1.92;91.21;99921.50;5004846;28;20144;-56
2020/12/31 03:09:07;;;;;;;14.52;9.30;;;;;;;2.03;91.26;99923.72;5008646;28;20050;-58
2020/12/31 03:11:33;;;;;;;13.73;9.27;;;;;;;2.12;90.67;99923.41;5007467;28;20061;-56
2020/12/31 03:14:00;;;;;;;14.50;8.55;;;;;;;2.10;90.42;99911.38;5024587;23;20134;-58
2020/12/31 03:16:27;;;;;;;11.68;7.55;;;;;;;2.07;90.51;99922.69;5007810;28;20054;-56
2020/12/31 03:18:53;;;;;;;14.43;9.68;;;;;;;2.03;90.43;99923.72;5005680;28;20562;-56
2020/12/31 03:21:20;;;;;;;12.15;8.57;;;;;;;1.97;90.79;99929.13;5006248;28;20630;-53
2020/12/31 03:23:47;;;;;;;14.35;8.90;;;;;;;1.98;90.82;99921.31;5004503;28;20054;-58
2020/12/31 03:26:14;;;;;;;12.70;7.93;;;;;;;2.17;90.17;99925.84;4998334;28;20054;-59
2020/12/31 03:28:41;;;;;;;12.85;8.05;;;;;;;1.93;90.57;99924.94;5004993;28;20133;-62
2020/12/31 03:31:08;;;;;;;14.57;9.52;;;;;;;1.96;90.86;99923.09;5000211;28;20049;-55
2020/12/31 03:33:34;;;;;;;17.08;9.73;;;;;;;2.10;90.27;99924.34;5002764;28;20050;-56
2020/12/31 03:36:01;;;;;;;11.70;8.35;;;;;;;1.93;90.95;99925.78;4984506;28;20451;-54
2020/12/31 03:38:28;;;;;;;12.23;8.60;;;;;;;1.66;91.75;99922.38;5007826;28;20053;-54
2020/12/31 03:40:54;;;;;;;12.13;8.73;;;;;;;1.91;91.61;99917.22;5006848;28;20075;-58
2020/12/31 03:43:21;;;;;;;12.57;8.23;;;;;;;2.02;90.78;99919.41;5003475;28;20050;-50
2020/12/31 03:45:48;;;;;;;12.75;8.68;;;;;;;2.00;90.26;99916.88;5006438;28;20522;-54
2020/12/31 03:48:14;;;;;;;11.45;8.40;;;;;;;1.96;90.37;99923.09;4998697;28;20550;-50
2020/12/31 03:50:41;;;;;;;11.45;8.40;;;;;;;1.97;90.25;99922.19;5007831;28;20251;-52
2020/12/31 03:53:08;;;;;;;11.70;8.20;;;;;;;1.92;90.53;99929.28;5001590;28;20050;-57
2020/12/31 03:55:34;;;;;;;12.68;8.13;;;;;;;1.87;90.59;99931.19;5010697;28;20069;-53
2020/12/31 03:58:01;;;;;;;13.57;8.00;;;;;;;1.95;90.68;99931.78;5003379;28;20137;-54
2020/12/31 04:00:28;;;;;;;16.02;9.20;;;;;;;1.81;90.74;99933.16;5004712;28;20056;-54
2020/12/31 04:02:55;;;;;;;10.48;7.53;;;;;;;1.88;91.08;99929.44;5007833;28;20058;-56
2020/12/31 04:05:22;;;;;;;14.27;8.77;;;;;;;1.96;90.63;99925.69;5008293;28;20050;-55
2020/12/31 04:07:48;;;;;;;12.70;9.38;;;;;;;2.03;90.13;99929.78;4992981;28;20042;-55
2020/12/31 04:10:15;;;;;;;14.73;8.50;;;;;;;1.88;90.98;99919.06;5004591;28;20050;-55
2020/12/31 04:12:42;;;;;;;12.82;8.43;;;;;;;1.88;91.04;99924.25;5003614;28;20542;-54
2020/12/31 04:15:08;;;;;;;11.13;7.70;;;;;;;2.00;90.12;99919.47;5010627;28;20054;-55
2020/12/31 04:17:35;;;;;;;13.40;9.07;;;;;;;1.91;90.89;99924.16;5000192;28;20049;-58
2020/12/31 04:20:05;;;;;;;12.77;8.98;;;;;;;1.87;90.80;99927.75;5002547;28;20141;-53
2020/12/31 04:22:31;;;;;;;15.15;9.25;;;;;;;1.79;91.43;99928.00;5002146;28;20061;-53
2020/12/31 04:24:58;;;;;;;16.90;10.13;;;;;;;1.64;92.33;99931.13;5007322;28;20049;-55
2020/12/31 04:27:25;;;;;;;13.43;8.85;;;;;;;1.96;91.65;99928.28;5006385;28;20136;-55
2020/12/31 04:29:52;;;;;;;12.45;9.25;;;;;;;2.11;91.07;99937.28;5002308;28;20058;-56
2020/12/31 04:32:18;;;;;;;13.13;8.85;;;;;;;2.08;90.65;99936.56;5003042;28;20418;-50
2020/12/31 04:34:45;;;;;;;12.18;8.45;;;;;;;2.20;90.55;99933.50;5008307;28;20136;-56
2020/12/31 04:37:12;;;;;;;13.30;8.70;;;;;;;2.25;90.25;99939.38;5008103;28;20061;-58
2020/12/31 04:39:38;;;;;;;13.35;8.55;;;;;;;2.27;90.20;99945.38;5005905;28;20038;-50
2020/12/31 04:42:06;;;;;;;13.60;9.35;;;;;;;1.85;92.56;99940.78;5007699;28;20081;-53
2020/12/31 04:44:34;;;;;;;15.60;9.82;;;;;;;2.05;93.74;99936.66;4984139;28;20692;-53
2020/12/31 04:47:03;;;;;;;14.90;9.65;;;;;;;2.13;93.68;99938.06;4985333;28;20511;-54
2020/12/31 04:49:43;;;;;;;13.98;8.95;;;;;;;2.06;93.91;99933.16;5003116;28;20137;-56
2020/12/31 04:52:11;;;;;;;19.42;10.00;;;;;;;2.06;94.53;99927.97;5010329;28;20058;-53
2020/12/31 04:54:38;;;;;;;15.20;10.30;;;;;;;1.96;95.21;99930.03;5006901;28;20073;-54
2020/12/31 04:57:05;;;;;;;16.55;10.52;;;;;;;1.92;95.57;99936.22;4989975;28;20418;-55
2020/12/31 04:59:32;;;;;;;18.08;10.57;;;;;;;1.95;95.39;99941.31;5004765;28;20046;-57
2020/12/31 05:01:59;;;;;;;17.70;10.93;;;;;;;1.79;96.50;99938.38;5005914;28;20074;-56
2020/12/31 05:04:25;;;;;;;18.80;11.40;;;;;;;1.96;95.67;99945.59;5007905;28;20054;-54
2020/12/31 05:06:53;;;;;;;16.15;10.07;;;;;;;2.00;95.42;99945.44;4991468;28;20065;-59
2020/12/31 05:09:21;;;;;;;16.10;10.65;;;;;;;2.00;95.00;99952.38;5005959;28;20052;-56
2020/12/31 05:11:51;;;;;;;14.90;10.65;;;;;;;1.96;95.56;99946.44;4985046;28;20053;-54
2020/12/31 05:14:32;;;;;;;13.77;9.07;;;;;;;1.98;94.27;99948.97;5008030;28;20052;-55
2020/12/31 05:17:10;;;;;;;15.00;9.40;;;;;;;2.00;94.73;99953.22;5000358;28;20056;-57
2020/12/31 05:19:37;;;;;;;13.77;9.27;;;;;;;1.94;94.63;99957.81;5005675;28;20050;-52
2020/12/31 05:22:17;;;;;;;14.02;10.23;;;;;;;1.98;94.29;99964.56;5007062;28;20574;-57
2020/12/31 05:24:47;;;;;;;16.75;10.73;;;;;;;1.98;94.34;99964.56;5002900;28;20057;-56
2020/12/31 05:27:26;;;;;;;13.93;9.13;;;;;;;1.93;94.47;99967.31;5003246;28;20066;-56
2020/12/31 05:30:06;;;;;;;12.95;9.10;;;;;;;1.89;94.23;99957.09;4988874;28;20046;-57
2020/12/31 05:32:36;;;;;;;13.10;9.27;;;;;;;1.93;94.40;99969.06;5005742;28;20506;-56
2020/12/31 05:35:10;;;;;;;13.68;9.02;;;;;;;1.89;94.24;99967.47;5008768;28;20055;-53
2020/12/31 05:37:37;;;;;;;16.50;9.90;;;;;;;1.85;93.99;99966.75;5007102;28;20528;-51
2020/12/31 05:40:11;;;;;;;15.70;9.90;;;;;;;1.87;94.04;99975.31;5007985;28;20049;-54
2020/12/31 05:42:40;;;;;;;14.43;10.40;;;;;;;1.75;93.91;99971.38;4985741;28;20094;-58
2020/12/31 05:45:10;;;;;;;16.45;10.63;;;;;;;1.76;94.74;99980.88;4984097;28;20054;-53
2020/12/31 05:47:48;;;;;;;17.75;10.25;;;;;;;1.85;94.42;99977.13;4986229;28;20050;-57
2020/12/31 05:50:16;;;;;;;18.25;11.35;;;;;;;1.68;94.56;99980.28;5000323;28;20062;-54
2020/12/31 05:52:42;;;;;;;14.25;9.70;;;;;;;1.70;94.29;99978.47;5009334;28;20053;-55
2020/12/31 05:55:09;;;;;;;16.92;10.43;;;;;;;1.64;94.25;99986.47;5001722;28;20047;-55
2020/12/31 05:57:57;;;;;;;18.55;10.43;;;;;;;1.42;95.58;99977.66;5003386;28;20165;-57
2020/12/31 06:00:26;;;;;;;17.40;10.30;;;;;;;1.33;95.69;99977.97;5006074;28;20771;-55
2020/12/31 06:02:53;;;;;;;19.77;11.20;;;;;;;1.09;96.23;99983.00;5003623;28;20069;-56
2020/12/31 06:05:22;;;;;;;19.27;11.45;;;;;;;1.00;96.86;99981.53;5004814;28;20057;-53
2020/12/31 06:07:50;;;;;;;18.90;11.57;;;;;;;0.94;97.79;99989.47;4990612;28;20149;-58
2020/12/31 06:10:23;;;;;;;18.80;12.15;;;;;;;0.80;98.15;99985.59;4999568;28;20146;-56
2020/12/31 06:12:59;;;;;;;18.77;11.07;;;;;;;0.88;98.21;99991.41;4987724;28;20510;-53
2020/12/31 06:15:29;;;;;;;20.38;12.20;;;;;;;0.89;97.81;99988.78;5008933;28;20061;-55
2020/12/31 06:17:56;;;;;;;19.20;11.55;;;;;;;0.93;97.43;99987.78;4998474;28;20878;-51
2020/12/31 06:20:25;;;;;;;18.95;11.25;;;;;;;0.86;97.71;99988.88;4999493;28;20161;-52
2020/12/31 06:23:08;;;;;;;18.40;10.57;;;;;;;0.98;97.22;99993.69;5007745;28;20070;-54
2020/12/31 06:25:39;;;;;;;19.27;11.98;;;;;;;0.83;97.33;99996.75;5003278;28;20046;-55
2020/12/31 06:28:09;;;;;;;20.83;11.90;;;;;;;0.82;97.56;99994.19;5007188;28;20161;-59
2020/12/31 06:30:37;;;;;;;18.52;11.13;;;;;;;0.89;97.58;99999.13;5005289;28;20464;-55
2020/12/31 06:33:11;;;;;;;17.13;11.35;;;;;;;0.91;97.53;100001.69;5000141;28;20065;-50
2020/12/31 06:35:42;;;;;;;20.73;12.55;;;;;;;0.90;97.33;99994.78;5005294;28;20042;-50
2020/12/31 06:38:09;;;;;;;18.17;11.75;;;;;;;0.93;97.45;100003.34;5002724;28;20474;-56
2020/12/31 06:40:37;;;;;;;22.88;12.57;;;;;;;0.88;97.43;100001.78;4997904;28;20058;-50
2020/12/31 06:43:09;;;;;;;17.05;10.93;;;;;;;0.93;97.49;100000.75;5007053;28;20045;-56
2020/12/31 06:45:45;;;;;;;18.88;11.07;;;;;;;1.08;96.16;100008.97;5008266;28;20531;-55
2020/12/31 06:48:27;;;;;;;17.38;11.93;;;;;;;0.86;96.67;100012.19;5001159;28;20510;-55
2020/12/31 06:51:00;;;;;;;21.40;11.63;;;;;;;0.74;97.39;100008.22;5006958;28;20058;-57
2020/12/31 06:53:36;;;;;;;20.80;12.25;;;;;;;0.49;97.69;100015.81;5004991;28;20141;-51
2020/12/31 06:56:07;;;;;;;22.52;12.57;;;;;;;0.45;98.47;100026.28;5004739;28;20054;-52
2020/12/31 06:58:34;;;;;;;18.33;10.88;;;;;;;0.56;98.00;100019.09;5005278;28;20146;-59
2020/12/31 07:01:22;;;;;;;17.77;11.50;;;;;;;0.56;97.22;100019.09;4998577;28;20058;-52
2020/12/31 07:03:50;;;;;;;18.27;10.80;;;;;;;0.58;97.31;100019.03;5001209;28;20096;-52
2020/12/31 07:06:23;;;;;;;21.25;12.02;;;;;;;0.59;97.01;100026.78;5002231;28;20057;-53
2020/12/31 07:08:54;;;;;;;20.10;11.27;;;;;;;0.65;97.09;100024.00;5003050;28;20137;-54
2020/12/31 07:11:35;;;;;;;18.42;12.60;;;;;;;0.62;97.31;100026.69;4989801;28;20129;-52
2020/12/31 07:14:20;;;;;;;23.58;10.85;;;;;;;1.00;95.74;100028.19;4995915;28;20062;-51
2020/12/31 07:17:00;;;;;;;15.18;9.90;;;;;;;1.06;94.24;100019.38;5001373;28;20060;-51
2020/12/31 07:19:37;;;;;;;17.15;10.48;;;;;;;0.71;95.58;100025.56;5000379;28;20477;-53
2020/12/31 07:22:09;;;;;;;21.13;11.68;;;;;;;0.66;96.68;100028.28;5002343;28;20048;-52
2020/12/31 07:25:03;;;;;;;19.85;11.73;;;;;;;0.48;96.96;100029.66;5004812;28;20127;-53
2020/12/31 07:27:30;;;;;;;16.92;11.15;;;;;;;0.29;97.34;100025.03;4991221;28;20056;-57
2020/12/31 07:29:58;;;;;;;18.85;12.20;;;;;;;0.35;97.31;100030.88;5006524;28;20084;-55
2020/12/31 07:32:50;;;;;;;18.45;11.23;;;;;;;0.24;97.67;100032.91;5008698;28;20474;-57
2020/12/31 07:35:24;;;;;;;21.75;11.02;;;;;;;0.18;97.90;100027.88;5006256;28;20046;-59
2020/12/31 07:38:05;;;;;;;20.05;11.95;;;;;;;0.11;97.97;100036.69;4986654;28;20057;-56
2020/12/31 07:40:33;;;;;;;17.95;11.88;;;;;;;0.07;97.79;100033.34;5004524;28;20136;-58
2020/12/31 07:43:01;;;;;;;21.40;12.73;;;;;;;0.08;98.33;100036.75;5005012;28;20054;-58
2020/12/31 07:45:28;;;;;;;18.58;10.88;;;;;;;0.09;98.03;100036.75;5009629;28;20046;-58
2020/12/31 07:47:55;;;;;;;18.88;11.20;;;;;;;0.18;97.92;100039.09;5005059;28;20133;-56
2020/12/31 07:50:22;;;;;;;19.02;11.80;;;;;;;0.19;97.97;100042.53;4987707;28;20367;-58
2020/12/31 07:52:49;;;;;;;16.38;10.32;;;;;;;0.35;97.51;100040.38;4989552;28;20065;-56
2020/12/31 07:55:16;;;;;;;18.80;11.40;;;;;;;0.37;97.17;100049.81;4992705;28;20397;-56
2020/12/31 07:57:43;;;;;;;18.23;11.05;;;;;;;0.60;96.00;100044.03;4987432;28;20042;-57
2020/12/31 08:00:14;;;;;;;18.83;10.25;;;;;;;0.78;95.22;100036.63;4999453;28;20387;-59
2020/12/31 08:02:43;;;;;;;15.82;10.57;;;;;;;0.90;94.42;100042.31;5001589;28;20149;-57
2020/12/31 08:05:12;;;;;;;16.60;10.23;;;;;;;0.86;94.12;100055.41;5003115;28;20537;-56
2020/12/31 08:07:40;;;;;;;14.95;9.38;;;;;;;1.06;93.63;100044.47;4987720;28;20042;-56
2020/12/31 08:10:08;;;;;;;13.88;8.52;;;;;;;1.30;91.86;100050.66;4985997;28;20074;-54
2020/12/31 08:12:38;;;;;;;13.30;9.05;;;;;;;1.27;91.85;100049.00;4998507;28;20058;-54
2020/12/31 08:15:06;;;;;;;13.48;8.75;;;;;;;1.39;92.18;100047.78;4987928;28;20061;-56
2020/12/31 08:17:33;;;;;;;12.77;9.30;;;;;;;1.31;91.89;100049.78;4988108;28;20100;-56
2020/12/31 08:20:01;;;;;;;12.70;8.50;;;;;;;1.48;91.44;100053.53;5001987;28;20845;-55
2020/12/31 08:22:29;;;;;;;13.25;8.55;;;;;;;1.66;90.22;100054.69;5005226;28;20046;-58
2020/12/31 08:24:59;;;;;;;12.95;8.20;;;;;;;1.57;90.15;100055.00;4988338;28;20077;-54
2020/12/31 08:27:26;;;;;;;14.38;9.10;;;;;;;1.59;90.66;100060.16;4984932;28;20053;-56
2020/12/31 08:29:54;;;;;;;13.52;8.23;;;;;;;1.62;90.13;100054.84;4997937;28;20046;-57
2020/12/31 08:32:23;;;;;;;12.95;9.15;;;;;;;1.63;90.13;100060.00;4990181;28;20068;-56
2020/12/31 08:34:56;;;;;;;10.88;7.65;;;;;;;1.89;89.32;100060.91;4995195;28;20057;-57
2020/12/31 08:37:25;;;;;;;12.25;8.15;;;;;;;1.91;89.08;100056.53;5010001;28;20093;-55
2020/12/31 08:39:54;;;;;;;11.90;7.38;;;;;;;1.99;89.39;100063.16;5009739;28;20053;-56
2020/12/31 08:42:23;;;;;;;12.75;8.50;;;;;;;1.92;89.35;100064.25;5010215;28;20050;-57
2020/12/31 08:44:52;;;;;;;10.43;7.00;;;;;;;2.01;88.03;100063.09;5001769;28;20060;-54
2020/12/31 08:47:20;;;;;;;8.65;6.82;;;;;;;2.11;87.61;100064.50;5000236;28;20058;-55
2020/12/31 08:49:57;;;;;;;9.52;6.03;;;;;;;2.20;86.96;100060.75;5011050;28;20518;-55
2020/12/31 08:52:27;;;;;;;13.20;7.57;;;;;;;2.15;86.83;100062.66;5006031;28;20524;-55
2020/12/31 08:55:10;;;;;;;10.30;6.43;;;;;;;2.14;87.50;100059.22;5007066;28;20466;-51
2020/12/31 08:57:38;;;;;;;12.50;7.30;;;;;;;2.18;88.12;100062.56;5002921;28;20137;-57
2020/12/31 09:00:06;;;;;;;11.05;6.63;;;;;;;2.34;86.86;100060.28;5007725;28;20050;-58
2020/12/31 09:02:33;;;;;;;13.05;7.25;;;;;;;2.44;86.08;100064.28;4992770;28;20042;-55
2020/12/31 09:05:14;;;;;;;12.50;7.35;;;;;;;2.33;86.03;100064.63;5011860;28;20078;-56
2020/12/31 09:07:41;;;;;;;10.35;6.85;;;;;;;2.40;85.95;100067.88;5010446;28;20054;-55
2020/12/31 09:10:15;;;;;;;14.27;6.55;;;;;;;2.45;85.49;100073.75;5002727;28;20168;-53
2020/12/31 09:12:43;;;;;;;8.20;5.45;;;;;;;2.46;85.68;100065.91;4999419;28;20050;-53
2020/12/31 09:15:19;;;;;;;12.82;6.82;;;;;;;2.54;84.54;100060.44;5026729;23;20494;-58
2020/12/31 09:17:47;;;;;;;10.68;6.97;;;;;;;2.54;85.33;100070.84;5014581;28;20050;-61
2020/12/31 09:20:28;;;;;;;10.43;6.47;;;;;;;2.66;85.27;100070.41;5008126;28;20080;-57
2020/12/31 09:23:10;;;;;;;7.72;4.95;;;;;;;2.75;83.87;100070.09;5025536;28;20053;-58
2020/12/31 09:25:50;;;;;;;10.63;6.10;;;;;;;2.71;84.04;100073.69;4979620;28;20129;-57
2020/12/31 09:28:17;;;;;;;12.23;7.10;;;;;;;2.85;83.30;100070.59;5006831;28;20526;-58
2020/12/31 09:30:44;;;;;;;8.00;5.85;;;;;;;2.77;83.08;100070.03;5009239;28;20068;-61
2020/12/31 09:33:15;;;;;;;9.57;5.45;;;;;;;2.74;82.55;100065.78;4988781;28;20593;-56
2020/12/31 09:35:42;;;;;;;8.18;5.82;;;;;;;2.86;82.71;100061.91;5008088;28;20068;-55
2020/12/31 09:38:09;;;;;;;9.10;5.78;;;;;;;2.80;82.66;100064.72;5000359;28;20054;-59
2020/12/31 09:40:36;;;;;;;11.15;6.85;;;;;;;2.96;81.80;100052.84;5014482;28;20049;-57
2020/12/31 09:43:04;;;;;;;10.10;5.90;;;;;;;2.97;82.74;100058.91;5003134;28;20056;-58
2020/12/31 09:45:31;;;;;;;9.63;6.18;;;;;;;3.16;81.96;100061.69;5010156;28;20149;-56
2020/12/31 09:47:58;;;;;;;8.27;5.53;;;;;;;3.11;81.61;100063.59;5000470;28;20619;-58
2020/12/31 09:50:25;;;;;;;9.07;5.70;;;;;;;3.21;81.56;100063.22;5018601;28;20053;-60
2020/12/31 09:52:52;;;;;;;10.25;5.75;;;;;;;3.17;80.85;100055.56;5017476;28;20050;-56
2020/12/31 09:55:31;;;;;;;10.45;5.28;;;;;;;3.10;80.86;100065.34;5009130;28;20050;-56
2020/12/31 09:57:58;;;;;;;8.60;6.25;;;;;;;3.26;79.83;100057.81;5006973;28;20057;-55
2020/12/31 10:00:24;;;;;;;8.45;5.63;;;;;;;3.22;80.47;100056.25;5006267;28;20054;-60
2020/12/31 10:02:51;;;;;;;7.95;5.65;;;;;;;3.29;80.09;100057.72;4997393;28;20054;-57
2020/12/31 10:05:19;;;;;;;11.68;4.97;;;;;;;3.26;79.52;100058.66;5005436;28;20050;-59
2020/12/31 10:11:57;;;;;;;10.55;6.10;;;;;;;3.54;79.97;100045.44;4999161;28;20049;-55
2020/12/31 10:14:24;;;;;;;9.20;6.00;;;;;;;3.49;82.45;100038.72;5003145;28;20050;-59
2020/12/31 10:16:51;;;;;;;7.32;5.38;;;;;;;3.71;79.21;100043.94;5003471;28;20065;-56
2020/12/31 10:19:17;;;;;;;8.52;5.47;;;;;;;4.04;77.70;100036.50;4985344;28;20054;-55
2020/12/31 10:21:46;;;;;;;9.07;5.57;;;;;;;3.91;76.94;100033.53;5008002;28;20078;-59
2020/12/31 10:24:13;;;;;;;9.95;5.45;;;;;;;3.95;77.17;100029.91;5010064;28;20064;-59
2020/12/31 10:26:44;;;;;;;12.15;5.55;;;;;;;3.97;76.57;100029.88;5003003;28;20046;-57
2020/12/31 10:29:16;;;;;;;8.20;5.03;;;;;;;4.09;76.29;100031.09;4986802;28;20046;-59
2020/12/31 10:31:43;;;;;;;7.97;5.95;;;;;;;4.11;75.85;100030.13;5004637;28;20068;-59
2020/12/31 10:34:10;;;;;;;7.43;5.43;;;;;;;3.99;76.59;100031.47;5004232;28;20125;-55
2020/12/31 10:36:37;;;;;;;8.65;4.93;;;;;;;3.97;75.76;100032.47;5009347;28;20137;-61
2020/12/31 10:39:04;;;;;;;7.35;4.85;;;;;;;3.79;75.83;100027.09;4987355;28;20057;-56
2020/12/31 10:41:31;;;;;;;9.50;5.35;;;;;;;3.77;76.33;100022.84;5007316;28;20054;-57
2020/12/31 10:43:59;;;;;;;7.80;5.55;;;;;;;4.01;75.03;100021.88;5000418;28;20057;-59
2020/12/31 10:46:26;;;;;;;7.45;5.30;;;;;;;3.92;76.47;100022.25;4988204;28;20062;-61
2020/12/31 10:48:53;;;;;;;10.13;5.53;;;;;;;4.11;75.34;100017.09;5005127;28;20141;-58
2020/12/31 10:51:20;;;;;;;7.38;4.88;;;;;;;4.16;74.62;100015.16;5001165;28;20696;-58
2020/12/31 10:53:47;;;;;;;7.65;4.72;;;;;;;4.25;73.73;100014.75;5006573;28;20078;-55
2020/12/31 10:56:20;;;;;;;7.10;4.82;;;;;;;4.14;74.82;100001.31;5010099;28;20057;-59
2020/12/31 10:58:47;;;;;;;7.03;4.72;;;;;;;4.11;75.18;100008.44;4994625;28;20104;-59
2020/12/31 11:01:14;;;;;;;9.80;5.28;;;;;;;4.16;74.55;100001.28;5007676;28;20053;-61
2020/12/31 11:03:42;;;;;;;8.27;4.63;;;;;;;4.14;74.04;100000.50;4997519;28;20149;-54
2020/12/31 11:06:10;;;;;;;8.05;4.70;;;;;;;4.22;74.18;99985.38;5007866;28;20128;-60
2020/12/31 11:08:37;;;;;;;7.85;5.15;;;;;;;4.41;73.69;99988.03;4992115;28;20398;-59
2020/12/31 11:11:03;;;;;;;6.40;4.32;;;;;;;4.37;73.08;99981.25;4997137;28;20046;-58
2020/12/31 11:13:30;;;;;;;6.90;5.00;;;;;;;4.29;72.78;99979.00;4997362;28;20145;-58
2020/12/31 11:15:56;;;;;;;7.35;4.93;;;;;;;4.28;73.96;99977.31;5003551;28;20076;-56
2020/12/31 11:18:23;;;;;;;7.22;4.60;;;;;;;4.15;73.58;99973.56;4998632;28;20054;-57
2020/12/31 11:20:53;;;;;;;7.82;5.20;;;;;;;4.25;73.57;99964.41;5007287;28;20049;-59
2020/12/31 11:23:20;;;;;;;7.72;4.53;;;;;;;4.24;73.68;99966.19;4999634;28;20062;-59
2020/12/31 11:25:46;;;;;;;7.03;4.78;;;;;;;4.17;73.39;99953.47;5007874;28;20046;-55
2020/12/31 11:28:13;;;;;;;7.20;5.32;;;;;;;4.12;73.87;99955.44;5008742;28;20137;-55
2020/12/31 11:30:40;;;;;;;9.35;5.20;;;;;;;4.12;73.91;99947.63;5012816;28;20045;-60
2020/12/31 11:33:06;;;;;;;8.63;4.93;;;;;;;4.13;74.49;99946.69;4998684;28;20050;-57
2020/12/31 11:35:33;;;;;;;7.43;5.13;;;;;;;3.96;73.87;99950.03;5004836;28;20050;-57
2020/12/31 11:38:00;;;;;;;6.60;4.55;;;;;;;3.97;74.40;99942.16;5003007;28;20054;-60
2020/12/31 11:40:27;;;;;;;8.07;5.15;;;;;;;4.04;74.08;99943.56;5006245;28;20065;-57